sensor_id;sensor_type;location;lat;lon;timestamp;P1;P2;P0
57049;PMS7003;42935;50.966;16.992;2023-02-01T00:01:37;1;0;0
57049;PMS7003;42935;50.966;16.992;2023-02-01T00:04:45;0;0;0
57049;PMS7003;42935;50.966;16.992;2023-02-01T00:07:49;0;0;0
57049;PMS7003;42935;50.966;16.992;2023-02-01T00:11:03;0;0;0
57049;PMS7003;42935;50.966;16.992;2023-02-01T00:14:14;0;0;0
57049;PMS7003;42935;50.966;16.992;2023-02-01T00:17:23;1;0;0
57049;PMS7003;42935;50.966;16.992;2023-02-01T00:20:32;1;0;0
57049;PMS7003;42935;50.966;16.992;2023-02-01T00:23:38;0;0;0
57049;PMS7003;42935;50.966;16.992;2023-02-01T00:26:46;0;0;0
57049;PMS7003;42935;50.966;16.992;2023-02-01T00:29:55;0;0;0
57049;PMS7003;42935;50.966;16.992;2023-02-01T00:33:06;1;0;0
57049;PMS7003;42935;50.966;16.992;2023-02-01T00:36:18;1;0;0
57049;PMS7003;42935;50.966;16.992;2023-02-01T00:39:25;0;0;0
57049;PMS7003;42935;50.966;16.992;2023-02-01T00:42:34;0;0;0
57049;PMS7003;42935;50.966;16.992;2023-02-01T00:45:42;1;0;0
57049;PMS7003;42935;50.966;16.992;2023-02-01T00:48:50;0;0;0
57049;PMS7003;42935;50.966;16.992;2023-02-01T00:51:56;1;0;0
57049;PMS7003;42935;50.966;16.992;2023-02-01T00:55:01;1;1;0
57049;PMS7003;42935;50.966;16.992;2023-02-01T00:58:11;3;0;0
57049;PMS7003;42935;50.966;16.992;2023-02-01T01:01:23;2;1;1
57049;PMS7003;42935;50.966;16.992;2023-02-01T01:04:33;5;1;1
57049;PMS7003;42935;50.966;16.992;2023-02-01T01:07:42;2;1;0
57049;PMS7003;42935;50.966;16.992;2023-02-01T01:10:51;1;1;0
57049;PMS7003;42935;50.966;16.992;2023-02-01T01:13:59;3;2;1
57049;PMS7003;42935;50.966;16.992;2023-02-01T01:17:05;3;1;1
57049;PMS7003;42935;50.966;16.992;2023-02-01T01:20:12;2;1;0
57049;PMS7003;42935;50.966;16.992;2023-02-01T01:23:21;2;0;0
57049;PMS7003;42935;50.966;16.992;2023-02-01T01:26:29;1;1;0
57049;PMS7003;42935;50.966;16.992;2023-02-01T01:29:37;2;1;1
57049;PMS7003;42935;50.966;16.992;2023-02-01T01:32:44;2;1;1
57049;PMS7003;42935;50.966;16.992;2023-02-01T01:35:50;5;1;1
57049;PMS7003;42935;50.966;16.992;2023-02-01T01:39:01;3;1;1
57049;PMS7003;42935;50.966;16.992;2023-02-01T01:42:11;2;1;0
57049;PMS7003;42935;50.966;16.992;2023-02-01T01:48:36;2;1;1
57049;PMS7003;42935;50.966;16.992;2023-02-01T01:51:46;3;1;1
57049;PMS7003;42935;50.966;16.992;2023-02-01T01:55:00;4;2;1
57049;PMS7003;42935;50.966;16.992;2023-02-01T01:58:10;4;3;2
57049;PMS7003;42935;50.966;16.992;2023-02-01T02:01:24;8;4;4
57049;PMS7003;42935;50.966;16.992;2023-02-01T02:04:34;16;11;8
57049;PMS7003;42935;50.966;16.992;2023-02-01T02:07:48;15;12;9
57049;PMS7003;42935;50.966;16.992;2023-02-01T02:11:00;7;4;2
57049;PMS7003;42935;50.966;16.992;2023-02-01T02:14:05;7;3;1
57049;PMS7003;42935;50.966;16.992;2023-02-01T02:17:24;4;3;2
57049;PMS7003;42935;50.966;16.992;2023-02-01T02:27:38;9;5;3
57049;PMS7003;42935;50.966;16.992;2023-02-01T02:40:37;6;3;1
57049;PMS7003;42935;50.966;16.992;2023-02-01T02:43:49;6;4;1
57049;PMS7003;42935;50.966;16.992;2023-02-01T02:47:13;8;5;2
57049;PMS7003;42935;50.966;16.992;2023-02-01T02:50:34;7;3;2
57049;PMS7003;42935;50.966;16.992;2023-02-01T03:00:55;8;3;2
57049;PMS7003;42935;50.966;16.992;2023-02-01T03:04:11;10;3;2
57049;PMS7003;42935;50.966;16.992;2023-02-01T03:14:04;8;5;2
57049;PMS7003;42935;50.966;16.992;2023-02-01T03:17:16;9;3;3
57049;PMS7003;42935;50.966;16.992;2023-02-01T03:20:28;7;2;2
57049;PMS7003;42935;50.966;16.992;2023-02-01T03:23:36;5;2;1
57049;PMS7003;42935;50.966;16.992;2023-02-01T03:26:51;5;2;1
57049;PMS7003;42935;50.966;16.992;2023-02-01T03:33:23;4;3;2
57049;PMS7003;42935;50.966;16.992;2023-02-01T03:39:53;5;3;2
57049;PMS7003;42935;50.966;16.992;2023-02-01T03:43:05;2;2;1
57049;PMS7003;42935;50.966;16.992;2023-02-01T03:46:17;5;2;1
57049;PMS7003;42935;50.966;16.992;2023-02-01T03:49:43;6;3;1
57049;PMS7003;42935;50.966;16.992;2023-02-01T03:53:07;7;2;2
57049;PMS7003;42935;50.966;16.992;2023-02-01T03:56:21;7;3;2
57049;PMS7003;42935;50.966;16.992;2023-02-01T03:59:33;5;3;2
57049;PMS7003;42935;50.966;16.992;2023-02-01T04:02:44;9;4;2
57049;PMS7003;42935;50.966;16.992;2023-02-01T04:05:53;8;5;3
57049;PMS7003;42935;50.966;16.992;2023-02-01T04:08:59;6;4;2
57049;PMS7003;42935;50.966;16.992;2023-02-01T04:12:08;9;3;2
57049;PMS7003;42935;50.966;16.992;2023-02-01T04:15:18;5;2;1
57049;PMS7003;42935;50.966;16.992;2023-02-01T04:18:27;3;2;1
57049;PMS7003;42935;50.966;16.992;2023-02-01T04:21:32;7;3;2
57049;PMS7003;42935;50.966;16.992;2023-02-01T04:24:42;7;5;2
57049;PMS7003;42935;50.966;16.992;2023-02-01T04:27:51;7;3;3
57049;PMS7003;42935;50.966;16.992;2023-02-01T04:30:58;5;3;2
57049;PMS7003;42935;50.966;16.992;2023-02-01T04:34:07;9;4;2
57049;PMS7003;42935;50.966;16.992;2023-02-01T04:37:16;9;3;2
57049;PMS7003;42935;50.966;16.992;2023-02-01T04:40:26;9;3;2
57049;PMS7003;42935;50.966;16.992;2023-02-01T04:43:37;5;3;2
57049;PMS7003;42935;50.966;16.992;2023-02-01T04:46:44;5;2;1
57049;PMS7003;42935;50.966;16.992;2023-02-01T04:49:53;5;2;1
57049;PMS7003;42935;50.966;16.992;2023-02-01T04:53:00;9;2;2
57049;PMS7003;42935;50.966;16.992;2023-02-01T04:56:10;3;2;1
57049;PMS7003;42935;50.966;16.992;2023-02-01T04:59:17;7;2;2
57049;PMS7003;42935;50.966;16.992;2023-02-01T05:02:26;7;3;1
57049;PMS7003;42935;50.966;16.992;2023-02-01T05:05:32;6;2;1
57049;PMS7003;42935;50.966;16.992;2023-02-01T05:08:40;6;2;1
57049;PMS7003;42935;50.966;16.992;2023-02-01T05:11:49;3;2;1
57049;PMS7003;42935;50.966;16.992;2023-02-01T05:15:09;9;5;4
57049;PMS7003;42935;50.966;16.992;2023-02-01T05:18:18;4;1;1
57049;PMS7003;42935;50.966;16.992;2023-02-01T05:21:29;7;2;1
57049;PMS7003;42935;50.966;16.992;2023-02-01T05:24:38;2;2;1
57049;PMS7003;42935;50.966;16.992;2023-02-01T05:27:47;7;5;2
57049;PMS7003;42935;50.966;16.992;2023-02-01T05:30:56;6;4;2
57049;PMS7003;42935;50.966;16.992;2023-02-01T05:34:04;6;3;2
57049;PMS7003;42935;50.966;16.992;2023-02-01T05:37:11;4;3;2
57049;PMS7003;42935;50.966;16.992;2023-02-01T05:40:16;7;2;1
57049;PMS7003;42935;50.966;16.992;2023-02-01T05:43:23;9;5;2
57049;PMS7003;42935;50.966;16.992;2023-02-01T05:46:33;6;3;2
57049;PMS7003;42935;50.966;16.992;2023-02-01T05:49:40;7;2;2
57049;PMS7003;42935;50.966;16.992;2023-02-01T05:52:47;6;3;1
57049;PMS7003;42935;50.966;16.992;2023-02-01T05:55:56;6;3;2
57049;PMS7003;42935;50.966;16.992;2023-02-01T05:59:04;6;4;2
57049;PMS7003;42935;50.966;16.992;2023-02-01T06:02:13;5;3;2
57049;PMS7003;42935;50.966;16.992;2023-02-01T06:05:20;5;1;1
57049;PMS7003;42935;50.966;16.992;2023-02-01T06:08:29;5;2;1
57049;PMS7003;42935;50.966;16.992;2023-02-01T06:11:38;5;1;1
57049;PMS7003;42935;50.966;16.992;2023-02-01T06:14:44;6;3;2
57049;PMS7003;42935;50.966;16.992;2023-02-01T06:17:48;5;3;1
57049;PMS7003;42935;50.966;16.992;2023-02-01T06:20:57;5;2;1
57049;PMS7003;42935;50.966;16.992;2023-02-01T06:24:10;6;2;2
57049;PMS7003;42935;50.966;16.992;2023-02-01T06:27:15;6;3;2
57049;PMS7003;42935;50.966;16.992;2023-02-01T06:30:22;7;3;2
57049;PMS7003;42935;50.966;16.992;2023-02-01T06:33:32;8;4;2
57049;PMS7003;42935;50.966;16.992;2023-02-01T06:36:43;8;4;2
57049;PMS7003;42935;50.966;16.992;2023-02-01T06:39:49;8;2;2
57049;PMS7003;42935;50.966;16.992;2023-02-01T06:42:55;5;2;1
57049;PMS7003;42935;50.966;16.992;2023-02-01T06:46:04;10;3;2
57049;PMS7003;42935;50.966;16.992;2023-02-01T06:49:15;8;3;2
57049;PMS7003;42935;50.966;16.992;2023-02-01T06:52:26;8;3;2
57049;PMS7003;42935;50.966;16.992;2023-02-01T06:55:32;5;3;2
57049;PMS7003;42935;50.966;16.992;2023-02-01T06:58:41;6;3;3
57049;PMS7003;42935;50.966;16.992;2023-02-01T07:01:50;10;4;3
57049;PMS7003;42935;50.966;16.992;2023-02-01T07:04:55;8;4;2
57049;PMS7003;42935;50.966;16.992;2023-02-01T07:08:07;7;4;2
57049;PMS7003;42935;50.966;16.992;2023-02-01T07:11:12;6;4;3
57049;PMS7003;42935;50.966;16.992;2023-02-01T07:14:23;9;4;2
57049;PMS7003;42935;50.966;16.992;2023-02-01T07:17:30;7;3;2
57049;PMS7003;42935;50.966;16.992;2023-02-01T07:20:39;9;5;3
57049;PMS7003;42935;50.966;16.992;2023-02-01T07:23:48;11;3;2
57049;PMS7003;42935;50.966;16.992;2023-02-01T07:26:57;7;3;2
57049;PMS7003;42935;50.966;16.992;2023-02-01T07:30:06;5;4;3
57049;PMS7003;42935;50.966;16.992;2023-02-01T07:33:17;9;4;3
57049;PMS7003;42935;50.966;16.992;2023-02-01T07:36:32;7;4;2
57049;PMS7003;42935;50.966;16.992;2023-02-01T07:39:43;5;5;3
57049;PMS7003;42935;50.966;16.992;2023-02-01T07:42:48;6;5;4
57049;PMS7003;42935;50.966;16.992;2023-02-01T07:45:57;10;7;4
57049;PMS7003;42935;50.966;16.992;2023-02-01T07:49:06;7;5;3
57049;PMS7003;42935;50.966;16.992;2023-02-01T07:52:17;8;5;3
57049;PMS7003;42935;50.966;16.992;2023-02-01T07:55:23;6;4;3
57049;PMS7003;42935;50.966;16.992;2023-02-01T07:58:29;6;3;2
57049;PMS7003;42935;50.966;16.992;2023-02-01T08:01:36;9;4;2
57049;PMS7003;42935;50.966;16.992;2023-02-01T08:04:45;6;3;2
57049;PMS7003;42935;50.966;16.992;2023-02-01T08:07:51;9;5;4
57049;PMS7003;42935;50.966;16.992;2023-02-01T08:11:00;9;6;4
57049;PMS7003;42935;50.966;16.992;2023-02-01T08:14:11;12;5;4
57049;PMS7003;42935;50.966;16.992;2023-02-01T08:17:20;7;4;3
57049;PMS7003;42935;50.966;16.992;2023-02-01T08:20:25;13;7;5
57049;PMS7003;42935;50.966;16.992;2023-02-01T08:23:32;11;5;3
57049;PMS7003;42935;50.966;16.992;2023-02-01T08:26:40;8;4;2
57049;PMS7003;42935;50.966;16.992;2023-02-01T08:29:47;7;5;4
57049;PMS7003;42935;50.966;16.992;2023-02-01T08:32:57;13;5;3
57049;PMS7003;42935;50.966;16.992;2023-02-01T08:36:05;9;5;4
57049;PMS7003;42935;50.966;16.992;2023-02-01T08:39:13;10;8;4
57049;PMS7003;42935;50.966;16.992;2023-02-01T08:42:22;11;7;4
57049;PMS7003;42935;50.966;16.992;2023-02-01T08:45:40;10;6;4
57049;PMS7003;42935;50.966;16.992;2023-02-01T08:48:51;7;4;3
57049;PMS7003;42935;50.966;16.992;2023-02-01T08:51:56;7;5;2
57049;PMS7003;42935;50.966;16.992;2023-02-01T08:55:35;7;5;3
57049;PMS7003;42935;50.966;16.992;2023-02-01T08:58:42;8;5;3
57049;PMS7003;42935;50.966;16.992;2023-02-01T09:01:52;6;3;2
57049;PMS7003;42935;50.966;16.992;2023-02-01T09:05:01;7;5;4
57049;PMS7003;42935;50.966;16.992;2023-02-01T09:08:10;8;5;3
57049;PMS7003;42935;50.966;16.992;2023-02-01T09:11:22;6;5;4
57049;PMS7003;42935;50.966;16.992;2023-02-01T09:14:32;8;5;3
57049;PMS7003;42935;50.966;16.992;2023-02-01T09:17:41;7;5;3
57049;PMS7003;42935;50.966;16.992;2023-02-01T09:20:51;5;2;1
57049;PMS7003;42935;50.966;16.992;2023-02-01T09:23:59;9;5;4
57049;PMS7003;42935;50.966;16.992;2023-02-01T09:27:09;5;3;2
57049;PMS7003;42935;50.966;16.992;2023-02-01T09:30:18;6;4;3
57049;PMS7003;42935;50.966;16.992;2023-02-01T09:33:27;5;3;2
57049;PMS7003;42935;50.966;16.992;2023-02-01T09:36:32;8;6;6
57049;PMS7003;42935;50.966;16.992;2023-02-01T09:39:39;5;4;3
57049;PMS7003;42935;50.966;16.992;2023-02-01T09:49:33;5;4;3
57049;PMS7003;42935;50.966;16.992;2023-02-01T09:52:50;9;5;4
57049;PMS7003;42935;50.966;16.992;2023-02-01T09:56:10;4;2;2
57049;PMS7003;42935;50.966;16.992;2023-02-01T09:59:22;9;5;3
57049;PMS7003;42935;50.966;16.992;2023-02-01T10:02:35;7;4;3
57049;PMS7003;42935;50.966;16.992;2023-02-01T10:25:44;9;7;5
57049;PMS7003;42935;50.966;16.992;2023-02-01T10:28:59;5;4;3
57049;PMS7003;42935;50.966;16.992;2023-02-01T10:32:17;10;7;5
57049;PMS7003;42935;50.966;16.992;2023-02-01T10:35:30;7;5;4
57049;PMS7003;42935;50.966;16.992;2023-02-01T10:38:41;14;7;5
57049;PMS7003;42935;50.966;16.992;2023-02-01T10:42:21;12;8;6
57049;PMS7003;42935;50.966;16.992;2023-02-01T10:45:34;4;4;3
57049;PMS7003;42935;50.966;16.992;2023-02-01T10:48:49;11;8;6
57049;PMS7003;42935;50.966;16.992;2023-02-01T10:52:02;8;6;5
57049;PMS7003;42935;50.966;16.992;2023-02-01T10:58:31;9;7;6
57049;PMS7003;42935;50.966;16.992;2023-02-01T11:01:43;11;6;5
57049;PMS7003;42935;50.966;16.992;2023-02-01T11:08:15;9;5;4
57049;PMS7003;42935;50.966;16.992;2023-02-01T11:11:28;6;6;5
57049;PMS7003;42935;50.966;16.992;2023-02-01T11:14:35;8;5;4
57049;PMS7003;42935;50.966;16.992;2023-02-01T11:17:44;5;4;3
57049;PMS7003;42935;50.966;16.992;2023-02-01T11:20:59;7;5;4
57049;PMS7003;42935;50.966;16.992;2023-02-01T11:24:11;9;6;4
57049;PMS7003;42935;50.966;16.992;2023-02-01T11:27:28;7;6;5
57049;PMS7003;42935;50.966;16.992;2023-02-01T11:30:40;10;7;5
57049;PMS7003;42935;50.966;16.992;2023-02-01T11:33:51;16;10;7
57049;PMS7003;42935;50.966;16.992;2023-02-01T11:37:04;6;4;3
57049;PMS7003;42935;50.966;16.992;2023-02-01T11:40:25;13;8;6
57049;PMS7003;42935;50.966;16.992;2023-02-01T11:43:34;6;4;3
57049;PMS7003;42935;50.966;16.992;2023-02-01T11:46:42;11;7;6
57049;PMS7003;42935;50.966;16.992;2023-02-01T11:49:48;7;4;3
57049;PMS7003;42935;50.966;16.992;2023-02-01T12:22:58;5;3;3
57049;PMS7003;42935;50.966;16.992;2023-02-01T12:36:10;4;4;3
57049;PMS7003;42935;50.966;16.992;2023-02-01T12:43:07;5;4;3
57049;PMS7003;42935;50.966;16.992;2023-02-01T12:46:09;5;3;2
57049;PMS7003;42935;50.966;16.992;2023-02-01T12:52:48;3;3;2
57049;PMS7003;42935;50.966;16.992;2023-02-01T13:02:39;3;3;2
57049;PMS7003;42935;50.966;16.992;2023-02-01T13:12:43;7;5;4
57049;PMS7003;42935;50.966;16.992;2023-02-01T13:19:23;5;4;3
57049;PMS7003;42935;50.966;16.992;2023-02-01T13:22:40;4;4;2
57049;PMS7003;42935;50.966;16.992;2023-02-01T13:25:58;3;3;2
57049;PMS7003;42935;50.966;16.992;2023-02-01T13:29:08;5;2;2
57049;PMS7003;42935;50.966;16.992;2023-02-01T13:42:19;1;1;1
57049;PMS7003;42935;50.966;16.992;2023-02-01T13:45:35;5;2;1
57049;PMS7003;42935;50.966;16.992;2023-02-01T13:48:57;4;2;2
57049;PMS7003;42935;50.966;16.992;2023-02-01T13:52:17;5;3;2
57049;PMS7003;42935;50.966;16.992;2023-02-01T13:55:28;6;2;2
57049;PMS7003;42935;50.966;16.992;2023-02-01T13:58:41;3;3;2
57049;PMS7003;42935;50.966;16.992;2023-02-01T14:01:51;5;3;2
57049;PMS7003;42935;50.966;16.992;2023-02-01T14:05:00;6;3;2
57049;PMS7003;42935;50.966;16.992;2023-02-01T14:08:11;4;2;1
57049;PMS7003;42935;50.966;16.992;2023-02-01T14:14:42;7;4;3
57049;PMS7003;42935;50.966;16.992;2023-02-01T14:17:51;5;4;2
57049;PMS7003;42935;50.966;16.992;2023-02-01T14:24:25;6;3;2
57049;PMS7003;42935;50.966;16.992;2023-02-01T14:27:37;4;4;2
57049;PMS7003;42935;50.966;16.992;2023-02-01T14:30:47;5;2;2
57049;PMS7003;42935;50.966;16.992;2023-02-01T14:33:58;5;4;2
57049;PMS7003;42935;50.966;16.992;2023-02-01T14:37:11;7;3;2
57049;PMS7003;42935;50.966;16.992;2023-02-01T14:40:30;12;4;3
57049;PMS7003;42935;50.966;16.992;2023-02-01T14:54:14;4;3;2
57049;PMS7003;42935;50.966;16.992;2023-02-01T14:57:26;5;2;2
57049;PMS7003;42935;50.966;16.992;2023-02-01T15:00:37;5;3;2
57049;PMS7003;42935;50.966;16.992;2023-02-01T15:04:01;7;4;3
57049;PMS7003;42935;50.966;16.992;2023-02-01T15:07:15;6;2;1
57049;PMS7003;42935;50.966;16.992;2023-02-01T15:10:22;7;5;3
57049;PMS7003;42935;50.966;16.992;2023-02-01T15:13:29;4;3;2
57049;PMS7003;42935;50.966;16.992;2023-02-01T15:16:35;7;7;5
57049;PMS7003;42935;50.966;16.992;2023-02-01T15:19:58;7;6;4
57049;PMS7003;42935;50.966;16.992;2023-02-01T15:23:14;9;7;6
57049;PMS7003;42935;50.966;16.992;2023-02-01T15:26:30;9;7;4
57049;PMS7003;42935;50.966;16.992;2023-02-01T15:29:37;12;8;6
57049;PMS7003;42935;50.966;16.992;2023-02-01T15:32:46;14;9;6
57049;PMS7003;42935;50.966;16.992;2023-02-01T15:39:18;8;7;5
57049;PMS7003;42935;50.966;16.992;2023-02-01T15:46:01;8;5;4
57049;PMS7003;42935;50.966;16.992;2023-02-01T15:49:20;8;5;3
57049;PMS7003;42935;50.966;16.992;2023-02-01T15:52:35;8;5;3
57049;PMS7003;42935;50.966;16.992;2023-02-01T15:55:41;8;6;5
57049;PMS7003;42935;50.966;16.992;2023-02-01T15:58:57;11;7;6
57049;PMS7003;42935;50.966;16.992;2023-02-01T16:08:52;14;9;6
57049;PMS7003;42935;50.966;16.992;2023-02-01T16:15:28;12;9;5
57049;PMS7003;42935;50.966;16.992;2023-02-01T16:18:35;11;8;5
57049;PMS7003;42935;50.966;16.992;2023-02-01T16:21:45;9;6;4
57049;PMS7003;42935;50.966;16.992;2023-02-01T16:24:54;14;11;8
57049;PMS7003;42935;50.966;16.992;2023-02-01T16:28:04;13;9;7
57049;PMS7003;42935;50.966;16.992;2023-02-01T16:31:12;14;12;8
57049;PMS7003;42935;50.966;16.992;2023-02-01T16:34:24;11;8;6
57049;PMS7003;42935;50.966;16.992;2023-02-01T16:37:33;7;7;6
57049;PMS7003;42935;50.966;16.992;2023-02-01T16:40:45;14;9;6
57049;PMS7003;42935;50.966;16.992;2023-02-01T16:43:53;10;7;5
57049;PMS7003;42935;50.966;16.992;2023-02-01T16:47:03;11;8;6
57049;PMS7003;42935;50.966;16.992;2023-02-01T16:50:24;12;7;5
57049;PMS7003;42935;50.966;16.992;2023-02-01T16:53:34;17;11;9
57049;PMS7003;42935;50.966;16.992;2023-02-01T16:56:41;13;9;5
57049;PMS7003;42935;50.966;16.992;2023-02-01T16:59:53;9;8;5
57049;PMS7003;42935;50.966;16.992;2023-02-01T17:03:03;12;9;7
57049;PMS7003;42935;50.966;16.992;2023-02-01T17:06:09;13;9;6
57049;PMS7003;42935;50.966;16.992;2023-02-01T17:09:21;13;8;6
57049;PMS7003;42935;50.966;16.992;2023-02-01T17:12:32;11;7;5
57049;PMS7003;42935;50.966;16.992;2023-02-01T17:15:48;11;8;6
57049;PMS7003;42935;50.966;16.992;2023-02-01T17:19:05;12;6;5
57049;PMS7003;42935;50.966;16.992;2023-02-01T17:22:16;10;6;5
57049;PMS7003;42935;50.966;16.992;2023-02-01T17:25:29;12;6;4
57049;PMS7003;42935;50.966;16.992;2023-02-01T17:28:39;6;5;4
57049;PMS7003;42935;50.966;16.992;2023-02-01T17:31:44;9;6;4
57049;PMS7003;42935;50.966;16.992;2023-02-01T17:34:54;9;8;5
57049;PMS7003;42935;50.966;16.992;2023-02-01T17:38:00;12;8;5
57049;PMS7003;42935;50.966;16.992;2023-02-01T17:41:12;10;7;6
57049;PMS7003;42935;50.966;16.992;2023-02-01T17:44:24;11;10;7
57049;PMS7003;42935;50.966;16.992;2023-02-01T17:47:29;14;8;7
57049;PMS7003;42935;50.966;16.992;2023-02-01T17:50:40;11;10;6
57049;PMS7003;42935;50.966;16.992;2023-02-01T17:53:45;19;10;8
57049;PMS7003;42935;50.966;16.992;2023-02-01T17:56:52;17;10;7
57049;PMS7003;42935;50.966;16.992;2023-02-01T18:00:02;18;11;7
57049;PMS7003;42935;50.966;16.992;2023-02-01T18:03:23;10;7;6
57049;PMS7003;42935;50.966;16.992;2023-02-01T18:06:31;13;5;4
57049;PMS7003;42935;50.966;16.992;2023-02-01T18:09:40;7;6;4
57049;PMS7003;42935;50.966;16.992;2023-02-01T18:12:49;11;6;4
57049;PMS7003;42935;50.966;16.992;2023-02-01T18:15:58;16;8;6
57049;PMS7003;42935;50.966;16.992;2023-02-01T18:19:07;10;7;5
57049;PMS7003;42935;50.966;16.992;2023-02-01T18:22:17;10;8;5
57049;PMS7003;42935;50.966;16.992;2023-02-01T18:25:30;12;7;5
57049;PMS7003;42935;50.966;16.992;2023-02-01T18:28:44;11;7;6
57049;PMS7003;42935;50.966;16.992;2023-02-01T18:31:51;8;6;4
57049;PMS7003;42935;50.966;16.992;2023-02-01T18:35:01;7;6;5
57049;PMS7003;42935;50.966;16.992;2023-02-01T18:38:12;7;5;5
57049;PMS7003;42935;50.966;16.992;2023-02-01T18:41:21;10;5;3
57049;PMS7003;42935;50.966;16.992;2023-02-01T18:44:31;10;3;2
57049;PMS7003;42935;50.966;16.992;2023-02-01T18:47:40;5;3;2
57049;PMS7003;42935;50.966;16.992;2023-02-01T18:50:45;4;2;1
57049;PMS7003;42935;50.966;16.992;2023-02-01T18:53:54;6;5;3
57049;PMS7003;42935;50.966;16.992;2023-02-01T18:56:58;6;4;3
57049;PMS7003;42935;50.966;16.992;2023-02-01T19:00:08;7;4;2
57049;PMS7003;42935;50.966;16.992;2023-02-01T19:03:19;9;5;4
57049;PMS7003;42935;50.966;16.992;2023-02-01T19:06:28;6;4;2
57049;PMS7003;42935;50.966;16.992;2023-02-01T19:09:37;9;5;4
57049;PMS7003;42935;50.966;16.992;2023-02-01T19:12:43;5;5;4
57049;PMS7003;42935;50.966;16.992;2023-02-01T19:15:54;6;4;3
57049;PMS7003;42935;50.966;16.992;2023-02-01T19:19:03;7;4;3
57049;PMS7003;42935;50.966;16.992;2023-02-01T19:22:08;7;5;3
57049;PMS7003;42935;50.966;16.992;2023-02-01T19:25:16;6;5;3
57049;PMS7003;42935;50.966;16.992;2023-02-01T19:28:24;6;5;3
57049;PMS7003;42935;50.966;16.992;2023-02-01T19:31:33;8;5;4
57049;PMS7003;42935;50.966;16.992;2023-02-01T19:34:40;7;6;5
57049;PMS7003;42935;50.966;16.992;2023-02-01T19:37:49;11;6;6
57049;PMS7003;42935;50.966;16.992;2023-02-01T19:41:00;6;5;5
57049;PMS7003;42935;50.966;16.992;2023-02-01T19:44:42;10;7;5
57049;PMS7003;42935;50.966;16.992;2023-02-01T19:47:50;10;7;4
57049;PMS7003;42935;50.966;16.992;2023-02-01T19:50:56;11;7;4
57049;PMS7003;42935;50.966;16.992;2023-02-01T19:54:07;11;5;4
57049;PMS7003;42935;50.966;16.992;2023-02-01T19:57:17;7;4;3
57049;PMS7003;42935;50.966;16.992;2023-02-01T20:00:27;4;3;2
57049;PMS7003;42935;50.966;16.992;2023-02-01T20:03:31;4;2;1
57049;PMS7003;42935;50.966;16.992;2023-02-01T20:06:42;5;2;1
57049;PMS7003;42935;50.966;16.992;2023-02-01T20:09:51;6;5;2
57049;PMS7003;42935;50.966;16.992;2023-02-01T20:13:00;7;5;4
57049;PMS7003;42935;50.966;16.992;2023-02-01T20:16:09;4;2;2
57049;PMS7003;42935;50.966;16.992;2023-02-01T20:19:19;4;3;2
57049;PMS7003;42935;50.966;16.992;2023-02-01T20:22:28;3;2;1
57049;PMS7003;42935;50.966;16.992;2023-02-01T20:25:32;6;2;2
57049;PMS7003;42935;50.966;16.992;2023-02-01T20:28:46;2;2;2
57049;PMS7003;42935;50.966;16.992;2023-02-01T20:31:52;3;2;1
57049;PMS7003;42935;50.966;16.992;2023-02-01T20:35:01;4;3;3
57049;PMS7003;42935;50.966;16.992;2023-02-01T20:38:07;3;2;1
57049;PMS7003;42935;50.966;16.992;2023-02-01T20:41:21;5;3;1
57049;PMS7003;42935;50.966;16.992;2023-02-01T20:44:32;3;2;2
57049;PMS7003;42935;50.966;16.992;2023-02-01T20:47:37;5;3;2
57049;PMS7003;42935;50.966;16.992;2023-02-01T20:54:00;5;3;2
57049;PMS7003;42935;50.966;16.992;2023-02-01T20:57:07;5;3;3
57049;PMS7003;42935;50.966;16.992;2023-02-01T21:00:16;3;3;2
57049;PMS7003;42935;50.966;16.992;2023-02-01T21:03:23;4;2;2
57049;PMS7003;42935;50.966;16.992;2023-02-01T21:06:33;4;3;2
57049;PMS7003;42935;50.966;16.992;2023-02-01T21:09:43;6;3;2
57049;PMS7003;42935;50.966;16.992;2023-02-01T21:12:52;4;2;2
57049;PMS7003;42935;50.966;16.992;2023-02-01T21:16:02;5;2;1
57049;PMS7003;42935;50.966;16.992;2023-02-01T21:19:11;6;2;1
57049;PMS7003;42935;50.966;16.992;2023-02-01T21:22:20;4;3;1
57049;PMS7003;42935;50.966;16.992;2023-02-01T21:25:27;5;2;2
57049;PMS7003;42935;50.966;16.992;2023-02-01T21:28:32;3;2;2
57049;PMS7003;42935;50.966;16.992;2023-02-01T21:31:36;5;4;3
57049;PMS7003;42935;50.966;16.992;2023-02-01T21:34:51;5;2;2
57049;PMS7003;42935;50.966;16.992;2023-02-01T21:38:01;9;3;2
57049;PMS7003;42935;50.966;16.992;2023-02-01T21:41:11;5;3;1
57049;PMS7003;42935;50.966;16.992;2023-02-01T21:44:30;8;4;2
57049;PMS7003;42935;50.966;16.992;2023-02-01T21:47:39;7;2;2
57049;PMS7003;42935;50.966;16.992;2023-02-01T21:50:49;5;4;2
57049;PMS7003;42935;50.966;16.992;2023-02-01T21:53:55;4;2;1
57049;PMS7003;42935;50.966;16.992;2023-02-01T21:57:07;5;3;2
57049;PMS7003;42935;50.966;16.992;2023-02-01T22:00:16;5;2;1
57049;PMS7003;42935;50.966;16.992;2023-02-01T22:03:25;2;2;2
57049;PMS7003;42935;50.966;16.992;2023-02-01T22:06:38;3;1;1
57049;PMS7003;42935;50.966;16.992;2023-02-01T22:09:45;2;2;1
57049;PMS7003;42935;50.966;16.992;2023-02-01T22:12:51;1;1;1
57049;PMS7003;42935;50.966;16.992;2023-02-01T22:16:00;3;1;1
57049;PMS7003;42935;50.966;16.992;2023-02-01T22:19:09;3;2;2
57049;PMS7003;42935;50.966;16.992;2023-02-01T22:22:17;2;1;1
57049;PMS7003;42935;50.966;16.992;2023-02-01T22:25:24;4;3;2
57049;PMS7003;42935;50.966;16.992;2023-02-01T22:28:36;5;3;2
57049;PMS7003;42935;50.966;16.992;2023-02-01T22:31:46;4;2;1
57049;PMS7003;42935;50.966;16.992;2023-02-01T22:34:53;4;3;2
57049;PMS7003;42935;50.966;16.992;2023-02-01T22:37:57;3;1;1
57049;PMS7003;42935;50.966;16.992;2023-02-01T22:41:07;4;2;1
57049;PMS7003;42935;50.966;16.992;2023-02-01T22:44:12;3;2;1
57049;PMS7003;42935;50.966;16.992;2023-02-01T22:47:22;5;4;2
57049;PMS7003;42935;50.966;16.992;2023-02-01T22:50:28;4;4;2
57049;PMS7003;42935;50.966;16.992;2023-02-01T22:53:38;4;3;2
57049;PMS7003;42935;50.966;16.992;2023-02-01T22:56:45;5;3;2
57049;PMS7003;42935;50.966;16.992;2023-02-01T22:59:55;5;3;3
57049;PMS7003;42935;50.966;16.992;2023-02-01T23:03:06;7;4;3
57049;PMS7003;42935;50.966;16.992;2023-02-01T23:06:13;5;2;1
57049;PMS7003;42935;50.966;16.992;2023-02-01T23:09:25;4;2;1
57049;PMS7003;42935;50.966;16.992;2023-02-01T23:12:35;7;4;2
57049;PMS7003;42935;50.966;16.992;2023-02-01T23:15:44;6;4;3
57049;PMS7003;42935;50.966;16.992;2023-02-01T23:18:49;8;5;2
57049;PMS7003;42935;50.966;16.992;2023-02-01T23:22:00;5;2;1
57049;PMS7003;42935;50.966;16.992;2023-02-01T23:25:07;4;2;2
57049;PMS7003;42935;50.966;16.992;2023-02-01T23:28:16;5;4;3
57049;PMS7003;42935;50.966;16.992;2023-02-01T23:31:24;3;2;1
57049;PMS7003;42935;50.966;16.992;2023-02-01T23:34:32;4;2;1
57049;PMS7003;42935;50.966;16.992;2023-02-01T23:37:42;5;3;2
57049;PMS7003;42935;50.966;16.992;2023-02-01T23:40:51;6;3;2
57049;PMS7003;42935;50.966;16.992;2023-02-01T23:44:00;7;2;1
57049;PMS7003;42935;50.966;16.992;2023-02-01T23:47:09;5;3;2
57049;PMS7003;42935;50.966;16.992;2023-02-01T23:50:16;6;3;2
57049;PMS7003;42935;50.966;16.992;2023-02-01T23:53:25;4;3;2
57049;PMS7003;42935;50.966;16.992;2023-02-01T23:56:31;6;2;1
57049;PMS7003;42935;50.966;16.992;2023-02-01T23:59:45;9;4;2
